sensor_id;sensor_type;location;lat;lon;timestamp;pressure;altitude;pressure_sealevel;temperature;humidity
64967;BME280;51710;38.732;-121.358;2022-10-16T00:00:43;100368.81;;;28.37;41.58
64967;BME280;51710;38.732;-121.358;2022-10-16T00:03:10;100364.44;;;28.36;41.57
64967;BME280;51710;38.732;-121.358;2022-10-16T00:05:42;100366.09;;;28.32;41.86
64967;BME280;51710;38.732;-121.358;2022-10-16T00:08:11;100367.50;;;28.25;41.87
64967;BME280;51710;38.732;-121.358;2022-10-16T00:10:39;100359.31;;;28.20;41.67
64967;BME280;51710;38.732;-121.358;2022-10-16T00:13:07;100362.34;;;28.13;41.70
64967;BME280;51710;38.732;-121.358;2022-10-16T00:15:38;100355.25;;;28.07;41.96
64967;BME280;51710;38.732;-121.358;2022-10-16T00:18:05;100368.94;;;28.07;42.14
64967;BME280;51710;38.732;-121.358;2022-10-16T00:20:34;100360.22;;;28.00;42.52
64967;BME280;51710;38.732;-121.358;2022-10-16T00:23:04;100359.41;;;28.00;42.41
64967;BME280;51710;38.732;-121.358;2022-10-16T00:25:31;100356.69;;;27.95;42.49
64967;BME280;51710;38.732;-121.358;2022-10-16T00:28:01;100369.84;;;27.88;43.02
64967;BME280;51710;38.732;-121.358;2022-10-16T00:30:28;100366.03;;;27.79;43.33
64967;BME280;51710;38.732;-121.358;2022-10-16T00:32:55;100371.81;;;27.72;43.29
64967;BME280;51710;38.732;-121.358;2022-10-16T00:35:23;100373.72;;;27.56;43.44
64967;BME280;51710;38.732;-121.358;2022-10-16T00:37:50;100372.16;;;27.40;43.62
64967;BME280;51710;38.732;-121.358;2022-10-16T00:40:16;100373.81;;;27.31;44.12
64967;BME280;51710;38.732;-121.358;2022-10-16T00:42:43;100385.25;;;27.23;44.14
64967;BME280;51710;38.732;-121.358;2022-10-16T00:45:10;100388.00;;;27.13;44.21
64967;BME280;51710;38.732;-121.358;2022-10-16T00:47:43;100380.34;;;26.95;44.46
64967;BME280;51710;38.732;-121.358;2022-10-16T00:50:25;100388.50;;;26.70;45.07
64967;BME280;51710;38.732;-121.358;2022-10-16T00:52:54;100389.81;;;26.52;45.22
64967;BME280;51710;38.732;-121.358;2022-10-16T00:55:21;100397.97;;;26.37;45.41
64967;BME280;51710;38.732;-121.358;2022-10-16T00:57:50;100394.66;;;26.20;45.78
64967;BME280;51710;38.732;-121.358;2022-10-16T01:00:20;100398.41;;;26.04;46.03
64967;BME280;51710;38.732;-121.358;2022-10-16T01:02:59;100409.19;;;25.89;45.92
64967;BME280;51710;38.732;-121.358;2022-10-16T01:05:39;100408.03;;;25.75;46.64
64967;BME280;51710;38.732;-121.358;2022-10-16T01:08:22;100409.03;;;25.59;46.36
64967;BME280;51710;38.732;-121.358;2022-10-16T01:13:26;100412.06;;;25.31;46.78
64967;BME280;51710;38.732;-121.358;2022-10-16T01:16:05;100415.72;;;25.10;47.61
64967;BME280;51710;38.732;-121.358;2022-10-16T01:18:50;100431.25;;;24.83;47.41
64967;BME280;51710;38.732;-121.358;2022-10-16T01:21:29;100428.31;;;24.63;48.02
64967;BME280;51710;38.732;-121.358;2022-10-16T01:24:01;100434.59;;;24.41;48.81
64967;BME280;51710;38.732;-121.358;2022-10-16T01:32:36;100449.75;;;23.94;49.62
64967;BME280;51710;38.732;-121.358;2022-10-16T01:40:21;100464.31;;;23.50;50.52
64967;BME280;51710;38.732;-121.358;2022-10-16T01:43:01;100460.75;;;23.33;50.80
64967;BME280;51710;38.732;-121.358;2022-10-16T01:45:31;100457.44;;;23.14;50.91
64967;BME280;51710;38.732;-121.358;2022-10-16T01:48:00;100455.59;;;23.03;51.23
64967;BME280;51710;38.732;-121.358;2022-10-16T01:50:34;100467.28;;;22.87;51.79
64967;BME280;51710;38.732;-121.358;2022-10-16T01:53:03;100470.03;;;22.76;52.12
64967;BME280;51710;38.732;-121.358;2022-10-16T01:55:35;100462.78;;;22.65;52.33
64967;BME280;51710;38.732;-121.358;2022-10-16T01:58:05;100469.28;;;22.52;52.57
64967;BME280;51710;38.732;-121.358;2022-10-16T02:00:34;100469.28;;;22.41;52.65
64967;BME280;51710;38.732;-121.358;2022-10-16T02:03:05;100475.34;;;22.31;53.31
64967;BME280;51710;38.732;-121.358;2022-10-16T02:05:56;100479.88;;;22.14;53.28
64967;BME280;51710;38.732;-121.358;2022-10-16T02:08:25;100492.38;;;22.03;53.58
64967;BME280;51710;38.732;-121.358;2022-10-16T02:10:55;100495.69;;;21.94;53.73
64967;BME280;51710;38.732;-121.358;2022-10-16T02:13:28;100486.38;;;21.78;54.12
64967;BME280;51710;38.732;-121.358;2022-10-16T02:15:56;100496.94;;;21.68;54.20
64967;BME280;51710;38.732;-121.358;2022-10-16T02:18:26;100489.63;;;21.57;54.54
64967;BME280;51710;38.732;-121.358;2022-10-16T02:21:02;100499.03;;;21.43;55.05
64967;BME280;51710;38.732;-121.358;2022-10-16T02:26:21;100512.41;;;21.15;55.54
64967;BME280;51710;38.732;-121.358;2022-10-16T02:28:55;100514.84;;;21.05;55.64
64967;BME280;51710;38.732;-121.358;2022-10-16T02:31:28;100517.25;;;20.95;55.76
64967;BME280;51710;38.732;-121.358;2022-10-16T02:33:59;100525.25;;;20.90;56.05
64967;BME280;51710;38.732;-121.358;2022-10-16T02:36:27;100528.25;;;20.82;56.15
64967;BME280;51710;38.732;-121.358;2022-10-16T02:38:55;100535.06;;;20.73;56.32
64967;BME280;51710;38.732;-121.358;2022-10-16T02:41:22;100534.97;;;20.61;56.70
64967;BME280;51710;38.732;-121.358;2022-10-16T02:43:49;100546.50;;;20.57;56.89
64967;BME280;51710;38.732;-121.358;2022-10-16T02:46:17;100550.69;;;20.53;57.07
64967;BME280;51710;38.732;-121.358;2022-10-16T02:48:44;100556.78;;;20.48;57.17
64967;BME280;51710;38.732;-121.358;2022-10-16T02:51:11;100548.72;;;20.42;57.22
64967;BME280;51710;38.732;-121.358;2022-10-16T02:53:38;100559.16;;;20.38;57.32
64967;BME280;51710;38.732;-121.358;2022-10-16T02:56:06;100565.50;;;20.32;57.59
64967;BME280;51710;38.732;-121.358;2022-10-16T02:58:33;100566.97;;;20.28;57.43
64967;BME280;51710;38.732;-121.358;2022-10-16T03:01:00;100570.59;;;20.22;57.54
64967;BME280;51710;38.732;-121.358;2022-10-16T03:03:26;100574.38;;;20.14;57.95
64967;BME280;51710;38.732;-121.358;2022-10-16T03:05:53;100570.16;;;20.00;58.10
64967;BME280;51710;38.732;-121.358;2022-10-16T03:08:20;100574.16;;;19.91;58.33
64967;BME280;51710;38.732;-121.358;2022-10-16T03:10:49;100575.06;;;19.85;58.46
64967;BME280;51710;38.732;-121.358;2022-10-16T03:13:17;100586.53;;;19.81;58.58
64967;BME280;51710;38.732;-121.358;2022-10-16T03:15:46;100574.13;;;19.73;58.70
64967;BME280;51710;38.732;-121.358;2022-10-16T03:18:13;100591.81;;;19.69;58.88
64967;BME280;51710;38.732;-121.358;2022-10-16T03:20:40;100585.19;;;19.65;58.85
64967;BME280;51710;38.732;-121.358;2022-10-16T03:23:07;100586.72;;;19.61;58.86
64967;BME280;51710;38.732;-121.358;2022-10-16T03:25:34;100590.03;;;19.57;59.00
64967;BME280;51710;38.732;-121.358;2022-10-16T03:28:01;100589.47;;;19.48;59.36
64967;BME280;51710;38.732;-121.358;2022-10-16T03:30:28;100601.53;;;19.46;59.30
64967;BME280;51710;38.732;-121.358;2022-10-16T03:32:55;100596.81;;;19.41;59.44
64967;BME280;51710;38.732;-121.358;2022-10-16T03:35:23;100598.06;;;19.39;59.24
64967;BME280;51710;38.732;-121.358;2022-10-16T03:37:50;100597.28;;;19.32;59.73
64967;BME280;51710;38.732;-121.358;2022-10-16T03:40:17;100601.22;;;19.29;59.75
64967;BME280;51710;38.732;-121.358;2022-10-16T03:42:45;100609.31;;;19.29;59.90
64967;BME280;51710;38.732;-121.358;2022-10-16T03:45:12;100617.25;;;19.24;59.85
64967;BME280;51710;38.732;-121.358;2022-10-16T03:47:39;100615.38;;;19.18;60.07
64967;BME280;51710;38.732;-121.358;2022-10-16T03:50:06;100616.44;;;19.17;60.22
64967;BME280;51710;38.732;-121.358;2022-10-16T03:52:33;100616.03;;;19.14;60.24
64967;BME280;51710;38.732;-121.358;2022-10-16T03:54:59;100620.00;;;19.11;60.19
64967;BME280;51710;38.732;-121.358;2022-10-16T03:57:26;100627.91;;;19.06;60.33
64967;BME280;51710;38.732;-121.358;2022-10-16T03:59:53;100635.59;;;19.02;60.29
64967;BME280;51710;38.732;-121.358;2022-10-16T04:02:20;100635.03;;;18.94;60.51
64967;BME280;51710;38.732;-121.358;2022-10-16T04:04:47;100627.97;;;18.93;60.52
64967;BME280;51710;38.732;-121.358;2022-10-16T04:07:14;100639.41;;;18.88;60.72
64967;BME280;51710;38.732;-121.358;2022-10-16T04:09:41;100646.47;;;18.83;61.13
64967;BME280;51710;38.732;-121.358;2022-10-16T04:12:08;100649.16;;;18.83;61.05
64967;BME280;51710;38.732;-121.358;2022-10-16T04:14:35;100651.28;;;18.81;61.12
64967;BME280;51710;38.732;-121.358;2022-10-16T04:17:02;100653.16;;;18.74;61.20
64967;BME280;51710;38.732;-121.358;2022-10-16T04:19:29;100650.47;;;18.67;61.33
64967;BME280;51710;38.732;-121.358;2022-10-16T04:21:56;100650.47;;;18.61;61.49
64967;BME280;51710;38.732;-121.358;2022-10-16T04:24:23;100653.59;;;18.58;61.78
64967;BME280;51710;38.732;-121.358;2022-10-16T04:26:51;100660.03;;;18.57;61.93
64967;BME280;51710;38.732;-121.358;2022-10-16T04:29:18;100653.19;;;18.54;61.95
64967;BME280;51710;38.732;-121.358;2022-10-16T04:31:44;100660.44;;;18.54;61.99
64967;BME280;51710;38.732;-121.358;2022-10-16T04:34:12;100666.47;;;18.56;61.95
64967;BME280;51710;38.732;-121.358;2022-10-16T04:36:39;100662.53;;;18.52;62.17
64967;BME280;51710;38.732;-121.358;2022-10-16T04:39:06;100674.59;;;18.49;62.26
64967;BME280;51710;38.732;-121.358;2022-10-16T04:41:33;100673.13;;;18.47;62.25
64967;BME280;51710;38.732;-121.358;2022-10-16T04:44:00;100676.25;;;18.44;62.32
64967;BME280;51710;38.732;-121.358;2022-10-16T04:46:27;100676.44;;;18.36;62.54
64967;BME280;51710;38.732;-121.358;2022-10-16T04:48:53;100674.97;;;18.33;62.62
64967;BME280;51710;38.732;-121.358;2022-10-16T04:51:20;100677.88;;;18.32;62.70
64967;BME280;51710;38.732;-121.358;2022-10-16T04:53:47;100686.19;;;18.30;62.88
64967;BME280;51710;38.732;-121.358;2022-10-16T04:56:14;100689.47;;;18.26;62.85
64967;BME280;51710;38.732;-121.358;2022-10-16T04:58:41;100693.44;;;18.23;63.04
64967;BME280;51710;38.732;-121.358;2022-10-16T05:01:08;100696.34;;;18.22;63.09
64967;BME280;51710;38.732;-121.358;2022-10-16T05:03:35;100699.44;;;18.19;63.28
64967;BME280;51710;38.732;-121.358;2022-10-16T05:06:01;100698.81;;;18.17;63.31
64967;BME280;51710;38.732;-121.358;2022-10-16T05:08:30;100705.25;;;18.16;63.42
64967;BME280;51710;38.732;-121.358;2022-10-16T05:10:56;100706.31;;;18.15;63.19
64967;BME280;51710;38.732;-121.358;2022-10-16T05:13:23;100696.53;;;18.14;63.47
64967;BME280;51710;38.732;-121.358;2022-10-16T05:15:50;100708.59;;;18.11;63.72
64967;BME280;51710;38.732;-121.358;2022-10-16T05:18:17;100706.50;;;18.07;63.55
64967;BME280;51710;38.732;-121.358;2022-10-16T05:20:47;100706.69;;;18.05;63.76
64967;BME280;51710;38.732;-121.358;2022-10-16T05:23:13;100710.66;;;18.03;63.86
64967;BME280;51710;38.732;-121.358;2022-10-16T05:25:40;100716.44;;;17.99;63.92
64967;BME280;51710;38.732;-121.358;2022-10-16T05:28:07;100711.88;;;17.93;64.30
64967;BME280;51710;38.732;-121.358;2022-10-16T05:30:33;100709.78;;;17.89;64.42
64967;BME280;51710;38.732;-121.358;2022-10-16T05:33:00;100706.44;;;17.87;64.29
64967;BME280;51710;38.732;-121.358;2022-10-16T05:35:27;100708.75;;;17.83;64.66
64967;BME280;51710;38.732;-121.358;2022-10-16T05:37:54;100707.06;;;17.82;64.72
64967;BME280;51710;38.732;-121.358;2022-10-16T05:40:20;100715.16;;;17.82;64.81
64967;BME280;51710;38.732;-121.358;2022-10-16T05:42:46;100712.47;;;17.82;64.77
64967;BME280;51710;38.732;-121.358;2022-10-16T05:45:13;100709.78;;;17.82;64.62
64967;BME280;51710;38.732;-121.358;2022-10-16T05:47:39;100714.31;;;17.82;64.90
64967;BME280;51710;38.732;-121.358;2022-10-16T05:50:06;100712.88;;;17.79;64.87
64967;BME280;51710;38.732;-121.358;2022-10-16T05:52:33;100714.31;;;17.75;65.11
64967;BME280;51710;38.732;-121.358;2022-10-16T05:55:00;100714.09;;;17.70;65.24
64967;BME280;51710;38.732;-121.358;2022-10-16T05:57:27;100720.91;;;17.66;65.91
64967;BME280;51710;38.732;-121.358;2022-10-16T05:59:54;100726.50;;;17.65;65.50
64967;BME280;51710;38.732;-121.358;2022-10-16T06:02:21;100725.66;;;17.64;65.37
64967;BME280;51710;38.732;-121.358;2022-10-16T06:04:48;100730.47;;;17.62;65.71
64967;BME280;51710;38.732;-121.358;2022-10-16T06:07:15;100730.47;;;17.62;65.64
64967;BME280;51710;38.732;-121.358;2022-10-16T06:09:42;100723.81;;;17.58;65.78
64967;BME280;51710;38.732;-121.358;2022-10-16T06:12:09;100725.88;;;17.56;65.83
64967;BME280;51710;38.732;-121.358;2022-10-16T06:14:36;100729.59;;;17.55;65.95
64967;BME280;51710;38.732;-121.358;2022-10-16T06:17:03;100732.06;;;17.50;65.85
64967;BME280;51710;38.732;-121.358;2022-10-16T06:19:29;100734.13;;;17.48;66.13
64967;BME280;51710;38.732;-121.358;2022-10-16T06:21:57;100731.44;;;17.48;66.31
64967;BME280;51710;38.732;-121.358;2022-10-16T06:24:25;100730.97;;;17.45;66.47
64967;BME280;51710;38.732;-121.358;2022-10-16T06:26:51;100733.25;;;17.41;66.43
64967;BME280;51710;38.732;-121.358;2022-10-16T06:29:19;100740.06;;;17.37;66.57
64967;BME280;51710;38.732;-121.358;2022-10-16T06:31:45;100742.75;;;17.37;66.89
64967;BME280;51710;38.732;-121.358;2022-10-16T06:34:12;100748.13;;;17.37;66.95
64967;BME280;51710;38.732;-121.358;2022-10-16T06:36:39;100749.19;;;17.36;66.82
64967;BME280;51710;38.732;-121.358;2022-10-16T06:39:06;100754.94;;;17.33;66.95
64967;BME280;51710;38.732;-121.358;2022-10-16T06:41:36;100751.81;;;17.30;67.11
64967;BME280;51710;38.732;-121.358;2022-10-16T06:44:07;100752.03;;;17.28;67.23
64967;BME280;51710;38.732;-121.358;2022-10-16T06:46:33;100749.31;;;17.28;67.04
64967;BME280;51710;38.732;-121.358;2022-10-16T06:49:00;100747.69;;;17.27;67.15
64967;BME280;51710;38.732;-121.358;2022-10-16T06:51:27;100750.56;;;17.26;67.32
64967;BME280;51710;38.732;-121.358;2022-10-16T06:53:55;100750.78;;;17.24;67.35
64967;BME280;51710;38.732;-121.358;2022-10-16T06:56:26;100747.66;;;17.21;67.53
64967;BME280;51710;38.732;-121.358;2022-10-16T06:58:55;100757.16;;;17.17;67.62
64967;BME280;51710;38.732;-121.358;2022-10-16T07:01:23;100748.22;;;17.16;67.81
64967;BME280;51710;38.732;-121.358;2022-10-16T07:03:51;100751.97;;;17.15;67.87
64967;BME280;51710;38.732;-121.358;2022-10-16T07:06:21;100750.28;;;17.14;67.77
64967;BME280;51710;38.732;-121.358;2022-10-16T07:08:48;100749.66;;;17.12;68.18
64967;BME280;51710;38.732;-121.358;2022-10-16T07:11:17;100755.88;;;17.13;67.80
64967;BME280;51710;38.732;-121.358;2022-10-16T07:13:45;100760.41;;;17.12;67.68
64967;BME280;51710;38.732;-121.358;2022-10-16T07:16:15;100766.63;;;17.13;67.95
64967;BME280;51710;38.732;-121.358;2022-10-16T07:18:43;100761.25;;;17.13;67.98
64967;BME280;51710;38.732;-121.358;2022-10-16T07:21:17;100767.69;;;17.12;67.90
64967;BME280;51710;38.732;-121.358;2022-10-16T07:23:45;100772.22;;;17.11;68.25
64967;BME280;51710;38.732;-121.358;2022-10-16T07:26:12;100773.28;;;17.10;68.14
64967;BME280;51710;38.732;-121.358;2022-10-16T07:28:39;100766.59;;;17.06;68.60
64967;BME280;51710;38.732;-121.358;2022-10-16T07:31:08;100770.50;;;17.04;68.67
64967;BME280;51710;38.732;-121.358;2022-10-16T07:33:37;100768.66;;;17.04;68.53
64967;BME280;51710;38.732;-121.358;2022-10-16T07:36:05;100777.78;;;17.03;68.57
64967;BME280;51710;38.732;-121.358;2022-10-16T07:38:32;100779.44;;;17.04;68.71
64967;BME280;51710;38.732;-121.358;2022-10-16T07:41:01;100780.47;;;17.03;68.72
64967;BME280;51710;38.732;-121.358;2022-10-16T07:43:28;100774.03;;;17.04;68.52
64967;BME280;51710;38.732;-121.358;2022-10-16T07:45:56;100784.81;;;17.04;68.91
64967;BME280;51710;38.732;-121.358;2022-10-16T07:48:24;100789.78;;;17.07;68.76
64967;BME280;51710;38.732;-121.358;2022-10-16T07:50:57;100781.50;;;17.09;68.67
64967;BME280;51710;38.732;-121.358;2022-10-16T07:53:25;100777.81;;;17.10;68.74
64967;BME280;51710;38.732;-121.358;2022-10-16T07:56:02;100774.06;;;17.11;68.67
64967;BME280;51710;38.732;-121.358;2022-10-16T07:58:30;100781.94;;;17.12;68.60
64967;BME280;51710;38.732;-121.358;2022-10-16T08:00:57;100778.44;;;17.12;68.75
64967;BME280;51710;38.732;-121.358;2022-10-16T08:03:25;100793.56;;;17.13;68.70
64967;BME280;51710;38.732;-121.358;2022-10-16T08:05:51;100801.44;;;17.14;68.73
64967;BME280;51710;38.732;-121.358;2022-10-16T08:08:19;100801.22;;;17.16;68.85
64967;BME280;51710;38.732;-121.358;2022-10-16T08:10:45;100801.44;;;17.14;68.68
64967;BME280;51710;38.732;-121.358;2022-10-16T08:13:13;100798.72;;;17.14;68.95
64967;BME280;51710;38.732;-121.358;2022-10-16T08:15:44;100801.44;;;17.14;68.84
64967;BME280;51710;38.732;-121.358;2022-10-16T08:18:13;100797.72;;;17.15;68.88
64967;BME280;51710;38.732;-121.358;2022-10-16T08:20:41;100800.41;;;17.15;69.05
64967;BME280;51710;38.732;-121.358;2022-10-16T08:23:10;100805.78;;;17.15;69.07
64967;BME280;51710;38.732;-121.358;2022-10-16T08:25:38;100796.88;;;17.15;68.96
64967;BME280;51710;38.732;-121.358;2022-10-16T08:28:09;100801.22;;;17.16;68.72
64967;BME280;51710;38.732;-121.358;2022-10-16T08:30:37;100799.56;;;17.15;68.90
64967;BME280;51710;38.732;-121.358;2022-10-16T08:33:04;100794.00;;;17.16;69.05
64967;BME280;51710;38.732;-121.358;2022-10-16T08:35:33;100792.34;;;17.15;69.09
64967;BME280;51710;38.732;-121.358;2022-10-16T08:37:59;100791.28;;;17.16;68.98
64967;BME280;51710;38.732;-121.358;2022-10-16T08:40:29;100790.28;;;17.17;68.81
64967;BME280;51710;38.732;-121.358;2022-10-16T08:46:08;100789.44;;;17.17;68.93
64967;BME280;51710;38.732;-121.358;2022-10-16T08:51:27;100804.75;;;17.16;69.00
64967;BME280;51710;38.732;-121.358;2022-10-16T08:53:59;100810.13;;;17.16;68.95
64967;BME280;51710;38.732;-121.358;2022-10-16T08:56:28;100808.09;;;17.18;68.87
64967;BME280;51710;38.732;-121.358;2022-10-16T08:58:57;100804.75;;;17.16;69.15
64967;BME280;51710;38.732;-121.358;2022-10-16T09:01:32;100816.38;;;17.17;69.05
64967;BME280;51710;38.732;-121.358;2022-10-16T09:06:46;100801.84;;;17.18;68.91
64967;BME280;51710;38.732;-121.358;2022-10-16T09:09:38;100806.44;;;17.17;69.04
64967;BME280;51710;38.732;-121.358;2022-10-16T09:12:28;100813.03;;;17.15;69.10
64967;BME280;51710;38.732;-121.358;2022-10-16T09:15:03;100811.56;;;17.12;69.04
64967;BME280;51710;38.732;-121.358;2022-10-16T09:25:32;100808.19;;;17.04;69.33
64967;BME280;51710;38.732;-121.358;2022-10-16T09:28:00;100816.25;;;17.04;69.20
64967;BME280;51710;38.732;-121.358;2022-10-16T09:30:28;100811.72;;;17.04;69.30
64967;BME280;51710;38.732;-121.358;2022-10-16T09:32:57;100815.44;;;17.03;69.51
64967;BME280;51710;38.732;-121.358;2022-10-16T09:38:05;100824.94;;;16.99;69.24
64967;BME280;51710;38.732;-121.358;2022-10-16T09:40:37;100825.34;;;16.96;69.51
64967;BME280;51710;38.732;-121.358;2022-10-16T09:43:41;100827.38;;;16.94;69.56
64967;BME280;51710;38.732;-121.358;2022-10-16T09:46:25;100828.59;;;16.92;69.48
64967;BME280;51710;38.732;-121.358;2022-10-16T09:48:57;100832.31;;;16.91;69.38
64967;BME280;51710;38.732;-121.358;2022-10-16T09:51:32;100836.22;;;16.88;69.95
64967;BME280;51710;38.732;-121.358;2022-10-16T09:54:11;100834.56;;;16.87;69.87
64967;BME280;51710;38.732;-121.358;2022-10-16T09:56:39;100837.47;;;16.85;69.74
64967;BME280;51710;38.732;-121.358;2022-10-16T09:59:21;100837.81;;;16.82;69.98
64967;BME280;51710;38.732;-121.358;2022-10-16T10:01:56;100836.78;;;16.77;70.10
64967;BME280;51710;38.732;-121.358;2022-10-16T10:04:26;100841.75;;;16.80;69.75
64967;BME280;51710;38.732;-121.358;2022-10-16T10:07:03;100843.41;;;16.81;69.83
64967;BME280;51710;38.732;-121.358;2022-10-16T10:09:38;100859.53;;;16.81;70.08
64967;BME280;51710;38.732;-121.358;2022-10-16T10:12:14;100856.22;;;16.79;70.20
64967;BME280;51710;38.732;-121.358;2022-10-16T10:14:51;100858.28;;;16.77;70.13
64967;BME280;51710;38.732;-121.358;2022-10-16T10:17:24;100862.00;;;16.76;70.22
64967;BME280;51710;38.732;-121.358;2022-10-16T10:19:52;100870.69;;;16.78;70.14
64967;BME280;51710;38.732;-121.358;2022-10-16T10:22:27;100860.78;;;16.78;70.30
64967;BME280;51710;38.732;-121.358;2022-10-16T10:27:53;100862.00;;;16.76;69.95
64967;BME280;51710;38.732;-121.358;2022-10-16T10:33:53;100861.16;;;16.75;70.27
64967;BME280;51710;38.732;-121.358;2022-10-16T10:36:39;100864.03;;;16.74;70.14
64967;BME280;51710;38.732;-121.358;2022-10-16T10:42:13;100865.06;;;16.73;70.59
64967;BME280;51710;38.732;-121.358;2022-10-16T10:55:47;100871.28;;;16.73;70.55
64967;BME280;51710;38.732;-121.358;2022-10-16T11:06:22;100880.38;;;16.72;70.69
64967;BME280;51710;38.732;-121.358;2022-10-16T11:09:08;100884.28;;;16.70;70.67
64967;BME280;51710;38.732;-121.358;2022-10-16T11:12:17;100891.72;;;16.68;70.63
64967;BME280;51710;38.732;-121.358;2022-10-16T11:14:50;100890.22;;;16.65;70.69
64967;BME280;51710;38.732;-121.358;2022-10-16T11:17:38;100889.22;;;16.66;70.74
64967;BME280;51710;38.732;-121.358;2022-10-16T11:20:15;100890.44;;;16.64;70.78
64967;BME280;51710;38.732;-121.358;2022-10-16T11:26:02;100902.22;;;16.63;70.99
64967;BME280;51710;38.732;-121.358;2022-10-16T11:28:48;100899.53;;;16.63;70.89
64967;BME280;51710;38.732;-121.358;2022-10-16T11:31:38;100899.53;;;16.63;70.84
64967;BME280;51710;38.732;-121.358;2022-10-16T11:34:17;100908.59;;;16.62;70.83
64967;BME280;51710;38.732;-121.358;2022-10-16T11:39:53;100910.50;;;16.61;70.97
64967;BME280;51710;38.732;-121.358;2022-10-16T11:42:32;100922.44;;;16.59;70.89
64967;BME280;51710;38.732;-121.358;2022-10-16T11:56:23;100939.16;;;16.54;71.17
64967;BME280;51710;38.732;-121.358;2022-10-16T11:59:05;100941.00;;;16.54;71.38
64967;BME280;51710;38.732;-121.358;2022-10-16T12:01:46;100937.47;;;16.53;71.26
64967;BME280;51710;38.732;-121.358;2022-10-16T12:07:18;100949.53;;;16.57;71.27
64967;BME280;51710;38.732;-121.358;2022-10-16T12:09:46;100950.38;;;16.58;71.15
64967;BME280;51710;38.732;-121.358;2022-10-16T12:12:48;100949.72;;;16.56;70.93
64967;BME280;51710;38.732;-121.358;2022-10-16T12:15:29;100957.16;;;16.54;71.15
64967;BME280;51710;38.732;-121.358;2022-10-16T12:17:56;100957.97;;;16.54;71.05
64967;BME280;51710;38.732;-121.358;2022-10-16T12:20:41;100962.31;;;16.55;71.25
64967;BME280;51710;38.732;-121.358;2022-10-16T12:23:20;100960.47;;;16.56;71.34
64967;BME280;51710;38.732;-121.358;2022-10-16T12:25:59;100964.19;;;16.55;71.13
64967;BME280;51710;38.732;-121.358;2022-10-16T12:28:34;100975.56;;;16.57;71.26
64967;BME280;51710;38.732;-121.358;2022-10-16T12:31:07;100974.56;;;16.58;71.26
64967;BME280;51710;38.732;-121.358;2022-10-16T12:33:55;100986.97;;;16.59;71.47
64967;BME280;51710;38.732;-121.358;2022-10-16T12:36:35;100993.41;;;16.58;70.97
64967;BME280;51710;38.732;-121.358;2022-10-16T12:39:03;100989.66;;;16.59;71.05
64967;BME280;51710;38.732;-121.358;2022-10-16T12:41:33;100993.84;;;16.61;71.25
64967;BME280;51710;38.732;-121.358;2022-10-16T12:44:01;100988.47;;;16.61;71.22
64967;BME280;51710;38.732;-121.358;2022-10-16T12:51:42;100995.06;;;16.59;71.13
64967;BME280;51710;38.732;-121.358;2022-10-16T12:54:14;101005.81;;;16.59;71.19
64967;BME280;51710;38.732;-121.358;2022-10-16T13:05:21;101008.50;;;16.59;71.02
64967;BME280;51710;38.732;-121.358;2022-10-16T13:08:11;101012.56;;;16.55;71.12
64967;BME280;51710;38.732;-121.358;2022-10-16T13:11:20;101009.22;;;16.53;71.06
64967;BME280;51710;38.732;-121.358;2022-10-16T13:28:07;101031.50;;;16.47;70.89
64967;BME280;51710;38.732;-121.358;2022-10-16T13:30:51;101024.28;;;16.47;70.84
64967;BME280;51710;38.732;-121.358;2022-10-16T13:33:35;101042.06;;;16.48;70.82
64967;BME280;51710;38.732;-121.358;2022-10-16T13:36:03;101046.59;;;16.48;70.89
64967;BME280;51710;38.732;-121.358;2022-10-16T13:38:35;101050.34;;;16.47;70.96
64967;BME280;51710;38.732;-121.358;2022-10-16T13:41:03;101057.38;;;16.48;71.33
64967;BME280;51710;38.732;-121.358;2022-10-16T13:43:52;101058.22;;;16.48;71.24
64967;BME280;51710;38.732;-121.358;2022-10-16T13:46:24;101054.31;;;16.51;71.07
64967;BME280;51710;38.732;-121.358;2022-10-16T13:49:14;101073.16;;;16.51;71.04
64967;BME280;51710;38.732;-121.358;2022-10-16T13:51:53;101062.41;;;16.51;70.99
64967;BME280;51710;38.732;-121.358;2022-10-16T13:54:20;101063.41;;;16.50;70.87
64967;BME280;51710;38.732;-121.358;2022-10-16T13:56:47;101067.13;;;16.49;70.99
64967;BME280;51710;38.732;-121.358;2022-10-16T13:59:32;101070.13;;;16.46;70.93
64967;BME280;51710;38.732;-121.358;2022-10-16T14:02:04;101080.88;;;16.46;70.99
64967;BME280;51710;38.732;-121.358;2022-10-16T14:04:33;101081.25;;;16.43;70.92
64967;BME280;51710;38.732;-121.358;2022-10-16T14:07:00;101084.97;;;16.42;71.09
64967;BME280;51710;38.732;-121.358;2022-10-16T14:09:30;101087.03;;;16.40;71.05
64967;BME280;51710;38.732;-121.358;2022-10-16T14:12:07;101080.59;;;16.41;70.88
64967;BME280;51710;38.732;-121.358;2022-10-16T14:14:40;101082.66;;;16.39;71.17
64967;BME280;51710;38.732;-121.358;2022-10-16T14:17:14;101086.19;;;16.39;71.03
64967;BME280;51710;38.732;-121.358;2022-10-16T14:19:46;101095.28;;;16.38;71.34
64967;BME280;51710;38.732;-121.358;2022-10-16T14:22:40;101092.41;;;16.40;71.64
64967;BME280;51710;38.732;-121.358;2022-10-16T14:30:57;101097.78;;;16.40;71.11
64967;BME280;51710;38.732;-121.358;2022-10-16T14:33:32;101100.28;;;16.41;71.14
64967;BME280;51710;38.732;-121.358;2022-10-16T14:38:32;101113.25;;;16.38;71.17
64967;BME280;51710;38.732;-121.358;2022-10-16T14:41:00;101118.63;;;16.38;71.43